Time;durP1;ratioP1;P1;durP2;ratioP2;P2;SDS_P1;SDS_P2;PMS_P1;PMS_P2;Temp;Humidity;BMP_temperature;BMP_pressure;BME280_temperature;BME280_humidity;BME280_pressure;Samples;Min_cycle;Max_cycle;Signal;HPM_P1;HPM_P2
2022/08/30 00:03:53;;;;;;;10.80;7.72;;;;;;;20.08;89.86;98874.50;5094016;27;20366;-93
2022/08/30 00:06:20;;;;;;;13.20;7.22;;;;;;;20.06;89.98;98884.53;5091773;28;20047;-92
2022/08/30 00:08:48;;;;;;;9.15;6.68;;;;;;;19.99;90.74;98885.88;5091759;28;20555;-95
2022/08/30 00:11:16;;;;;;;9.93;7.15;;;;;;;20.02;90.71;98884.81;5091975;28;20041;-92
2022/08/30 00:13:45;;;;;;;11.25;7.50;;;;;;;19.97;91.15;98884.22;5091730;28;20522;-94
2022/08/30 00:16:11;;;;;;;;;;;;;;;20.01;90.98;98893.88;5092285;28;20117;-96
2022/08/30 00:18:38;;;;;;;8.90;7.05;;;;;;;19.92;92.36;98878.28;5092378;28;20014;-94
2022/08/30 00:21:06;;;;;;;9.18;7.07;;;;;;;19.85;92.75;98875.97;5092880;28;20044;-95
2022/08/30 00:23:32;;;;;;;9.55;7.35;;;;;;;19.85;93.37;98886.75;5093487;28;20051;-96
2022/08/30 00:25:58;;;;;;;8.70;7.55;;;;;;;19.83;94.27;98895.91;5092462;28;20050;-96
2022/08/30 00:28:24;;;;;;;12.00;7.60;;;;;;;19.82;94.08;98900.44;5092379;28;20044;-95
2022/08/30 00:30:50;;;;;;;11.65;6.97;;;;;;;19.77;92.80;98880.97;5092829;28;20044;-95
2022/08/30 00:33:16;;;;;;;9.75;7.38;;;;;;;19.81;93.25;98898.69;5092574;28;20039;-95
2022/08/30 00:35:43;;;;;;;9.48;7.07;;;;;;;19.70;94.61;98896.66;5092098;28;20045;-96
2022/08/30 00:38:11;;;;;;;10.10;7.88;;;;;;;19.59;95.17;98882.09;5092155;28;20040;-96
2022/08/30 00:40:40;;;;;;;9.75;7.38;;;;;;;19.61;95.20;98888.28;5091517;28;20046;-95
2022/08/30 00:43:10;;;;;;;14.40;7.68;;;;;;;19.63;95.06;98889.91;5091182;28;20071;-95
2022/08/30 00:45:37;;;;;;;9.20;7.38;;;;;;;19.56;94.82;98876.88;5091409;28;20047;-94
2022/08/30 00:48:03;;;;;;;9.52;7.30;;;;;;;19.62;94.58;98898.09;5092865;28;20050;-95
2022/08/30 00:50:34;;;;;;;12.82;7.50;;;;;;;19.46;94.74;98882.84;5091361;28;20043;-95
2022/08/30 00:53:03;;;;;;;8.05;6.93;;;;;;;19.53;94.49;98887.88;5091320;28;20092;-95
2022/08/30 00:55:32;;;;;;;13.10;8.35;;;;;;;19.58;95.24;98899.22;5091473;28;20047;-96
2022/08/30 00:58:02;;;;;;;12.30;7.93;;;;;;;19.54;95.82;98900.38;5091519;28;20040;-96
2022/08/30 01:00:28;;;;;;;10.82;7.70;;;;;;;19.48;96.70;98894.41;5091255;28;20044;-95
2022/08/30 01:02:55;;;;;;;9.18;7.57;;;;;;;19.51;96.33;98912.22;5091271;28;20049;-95
2022/08/30 01:05:22;;;;;;;11.27;7.90;;;;;;;19.37;96.37;98894.22;5091090;28;20155;-95
2022/08/30 01:07:48;;;;;;;11.40;7.47;;;;;;;19.33;96.75;98887.25;5090956;28;20130;-95
2022/08/30 01:10:15;;;;;;;11.93;8.38;;;;;;;19.25;97.66;98889.56;5092294;28;20043;-94
2022/08/30 01:12:43;;;;;;;11.00;8.40;;;;;;;19.33;98.48;98906.13;5092592;28;20135;-95
2022/08/30 01:15:13;;;;;;;11.43;8.30;;;;;;;19.29;98.19;98896.50;5078284;28;20379;-94
2022/08/30 01:17:40;;;;;;;11.00;8.52;;;;;;;19.29;98.76;98899.19;5077453;28;20470;-95
2022/08/30 01:20:09;;;;;;;11.82;8.70;;;;;;;19.23;99.08;98902.25;5077209;28;20071;-95
2022/08/30 01:22:41;;;;;;;11.70;7.82;;;;;;;19.18;98.89;98880.13;5077276;28;20416;-92
2022/08/30 01:25:11;;;;;;;10.20;8.15;;;;;;;19.32;97.87;98911.63;5077344;28;20132;-95
2022/08/30 01:27:42;;;;;;;11.85;8.07;;;;;;;19.17;98.36;98886.44;5071589;28;20052;-94
2022/08/30 01:30:09;;;;;;;13.30;8.20;;;;;;;19.13;98.01;98893.88;5077603;28;20573;-95
2022/08/30 01:32:39;;;;;;;10.15;7.75;;;;;;;19.09;96.77;98895.00;5077866;28;20045;-96
2022/08/30 01:35:06;;;;;;;10.10;8.15;;;;;;;19.14;97.07;98900.97;5077771;28;20044;-95
2022/08/30 01:37:35;;;;;;;9.85;7.72;;;;;;;19.17;96.46;98911.59;5077001;28;20136;-96
2022/08/30 01:40:02;;;;;;;13.30;8.25;;;;;;;18.98;98.20;98892.09;5077971;28;20375;-95
2022/08/30 01:42:29;;;;;;;11.65;9.07;;;;;;;19.14;99.12;98919.84;5078740;28;20033;-96
2022/08/30 01:44:55;;;;;;;13.15;8.02;;;;;;;19.03;99.45;98901.63;5078798;28;20040;-94
2022/08/30 01:47:21;;;;;;;14.75;8.95;;;;;;;18.94;99.18;98888.72;5078495;28;20043;-94
2022/08/30 01:49:47;;;;;;;11.25;7.47;;;;;;;19.05;97.79;98902.41;5077661;28;20494;-95
2022/08/30 01:52:16;;;;;;;12.07;8.32;;;;;;;18.98;98.68;98898.34;5076886;28;20040;-96
2022/08/30 01:54:44;;;;;;;12.00;8.65;;;;;;;19.05;99.31;98913.19;5076714;28;20040;-95
2022/08/30 01:57:13;;;;;;;10.80;8.48;;;;;;;19.00;99.90;98903.66;5076900;28;20083;-95
2022/08/30 01:59:46;;;;;;;13.60;8.50;;;;;;;18.96;100.00;98902.97;5076955;28;20052;-96
2022/08/30 02:02:13;;;;;;;10.18;7.95;;;;;;;19.03;100.00;98917.78;5076180;28;20049;-95
2022/08/30 02:04:39;;;;;;;13.57;8.50;;;;;;;19.04;100.00;98908.78;5077015;28;20428;-95
2022/08/30 02:07:05;;;;;;;9.65;8.05;;;;;;;18.91;99.54;98875.44;5077541;28;20075;-95
2022/08/30 02:09:31;;;;;;;12.20;8.75;;;;;;;19.00;98.78;98891.03;5077988;28;20045;-95
2022/08/30 02:11:57;;;;;;;13.82;8.15;;;;;;;19.06;98.47;98892.47;5076802;28;20114;-96
2022/08/30 02:14:23;;;;;;;11.02;8.50;;;;;;;18.86;99.03;98861.34;5076264;28;20043;-95
2022/08/30 02:16:50;;;;;;;11.45;8.65;;;;;;;18.95;99.46;98890.44;5076423;28;20044;-95
2022/08/30 02:19:16;;;;;;;11.05;8.73;;;;;;;18.95;99.35;98903.03;5076234;28;20043;-95
2022/08/30 02:21:43;;;;;;;12.90;8.75;;;;;;;18.84;100.00;98890.19;5078272;28;20052;-96
2022/08/30 02:24:09;;;;;;;12.88;9.27;;;;;;;18.87;100.00;98896.28;5076204;28;20428;-93
2022/08/30 02:26:35;;;;;;;12.57;8.10;;;;;;;18.84;100.00;98888.38;5075340;28;20045;-94
2022/08/30 02:29:04;;;;;;;13.05;9.02;;;;;;;18.83;100.00;98892.03;5078834;28;20051;-95
2022/08/30 02:31:30;;;;;;;9.93;8.18;;;;;;;18.91;99.32;98910.47;5076957;28;20044;-96
2022/08/30 02:33:57;;;;;;;10.95;8.43;;;;;;;18.80;100.00;98907.50;5075639;28;20094;-95
2022/08/30 02:36:23;;;;;;;11.93;8.00;;;;;;;18.86;100.00;98917.94;5075618;28;20044;-95
2022/08/30 02:38:50;;;;;;;11.13;8.15;;;;;;;18.90;100.00;98916.78;5075487;28;20132;-94
2022/08/30 02:41:16;;;;;;;13.30;9.25;;;;;;;18.77;100.00;98905.81;5078264;28;20063;-96
2022/08/30 02:43:42;;;;;;;12.25;8.65;;;;;;;18.75;100.00;98913.13;5075606;28;20037;-95
2022/08/30 02:46:08;;;;;;;11.68;8.98;;;;;;;18.64;100.00;98900.28;5077030;28;20056;-96
2022/08/30 02:48:34;;;;;;;11.43;9.55;;;;;;;18.65;100.00;98899.34;5077110;28;20494;-94
2022/08/30 02:51:06;;;;;;;11.65;9.35;;;;;;;18.57;100.00;98890.84;5076037;28;20100;-96
2022/08/30 02:53:32;;;;;;;13.23;8.60;;;;;;;18.63;100.00;98906.66;5076579;28;20068;-96
2022/08/30 02:55:58;;;;;;;11.15;8.45;;;;;;;18.63;100.00;98903.09;5076721;28;20452;-96
2022/08/30 02:58:24;;;;;;;12.10;8.82;;;;;;;18.56;100.00;98894.47;5075774;28;20444;-95
2022/08/30 03:00:50;;;;;;;11.75;8.77;;;;;;;18.54;100.00;98893.72;5075943;28;20512;-95
2022/08/30 03:03:16;;;;;;;10.02;8.65;;;;;;;18.64;100.00;98908.38;5075633;28;20053;-96
2022/08/30 03:05:41;;;;;;;10.70;8.38;;;;;;;18.54;100.00;98896.41;5075230;28;20040;-92
2022/08/30 03:08:09;;;;;;;12.05;8.77;;;;;;;18.47;100.00;98887.78;5075343;28;20044;-95
2022/08/30 03:10:35;;;;;;;12.45;8.63;;;;;;;18.55;100.00;98894.56;5074993;28;20452;-94
2022/08/30 03:13:02;;;;;;;12.63;9.10;;;;;;;18.55;100.00;98908.91;5074813;28;20124;-94
2022/08/30 03:15:28;;;;;;;10.73;8.68;;;;;;;18.41;100.00;98888.16;5074982;28;20397;-93
2022/08/30 03:17:54;;;;;;;11.98;8.50;;;;;;;18.44;100.00;98889.81;5074797;28;20132;-94
2022/08/30 03:20:21;;;;;;;12.30;8.80;;;;;;;18.39;100.00;98886.50;5074640;28;20070;-94
2022/08/30 03:22:47;;;;;;;11.43;8.88;;;;;;;18.49;100.00;98901.16;5074691;28;20047;-95
2022/08/30 03:25:15;;;;;;;10.80;8.52;;;;;;;18.47;100.00;98900.38;5074628;28;20068;-94
2022/08/30 03:27:41;;;;;;;12.18;8.88;;;;;;;18.46;100.00;98902.22;5074567;28;20036;-94
2022/08/30 03:30:08;;;;;;;12.60;9.00;;;;;;;18.51;100.00;98901.94;5075037;28;20048;-93
2022/08/30 03:32:34;;;;;;;13.27;8.82;;;;;;;18.47;100.00;98889.63;5074877;28;20128;-94
2022/08/30 03:35:00;;;;;;;12.60;9.30;;;;;;;18.43;100.00;98891.63;5074543;28;20539;-94
2022/08/30 03:37:26;;;;;;;10.82;9.27;;;;;;;18.52;100.00;98908.19;5074382;28;20127;-95
2022/08/30 03:39:52;;;;;;;12.60;9.02;;;;;;;18.51;100.00;98893.88;5075212;28;20048;-93
2022/08/30 03:42:20;;;;;;;15.75;9.77;;;;;;;18.43;100.00;98886.25;5076029;28;20047;-95
2022/08/30 03:44:46;;;;;;;14.25;9.65;;;;;;;18.57;100.00;98889.97;5076779;28;20044;-96
2022/08/30 03:47:12;;;;;;;14.02;9.80;;;;;;;18.56;100.00;98897.16;5075078;28;20048;-94
2022/08/30 03:49:38;;;;;;;12.25;9.80;;;;;;;18.46;100.00;98885.22;5075014;28;20051;-94
2022/08/30 03:52:04;;;;;;;11.48;9.63;;;;;;;18.54;100.00;98892.81;5074508;28;20120;-94
2022/08/30 03:54:30;;;;;;;12.95;9.85;;;;;;;18.52;100.00;98883.97;5075408;28;20090;-94
2022/08/30 03:56:57;;;;;;;13.43;9.63;;;;;;;18.69;100.00;98913.47;5074378;28;20041;-94
2022/08/30 03:59:24;;;;;;;13.77;10.10;;;;;;;18.55;100.00;98895.44;5074267;28;20044;-95
2022/08/30 04:01:50;;;;;;;11.90;9.52;;;;;;;18.57;100.00;98903.44;5074199;28;20497;-95
2022/08/30 04:04:16;;;;;;;11.93;9.02;;;;;;;18.60;100.00;98914.03;5074548;28;20114;-93
2022/08/30 04:06:42;;;;;;;15.30;9.85;;;;;;;18.55;100.00;98916.97;5074188;28;20072;-94
2022/08/30 04:09:09;;;;;;;12.02;9.45;;;;;;;18.40;100.00;98899.00;5074248;28;20510;-94
2022/08/30 04:11:35;;;;;;;15.32;8.90;;;;;;;18.49;100.00;98911.94;5074282;28;20086;-94
2022/08/30 04:14:00;;;;;;;12.77;9.20;;;;;;;18.35;100.00;98898.41;5074554;28;20040;-94
2022/08/30 04:16:28;;;;;;;14.35;10.15;;;;;;;18.26;100.00;98905.19;5074614;28;20071;-95
2022/08/30 04:18:54;;;;;;;12.70;10.00;;;;;;;18.25;100.00;98915.06;5074490;28;20044;-94
2022/08/30 04:21:23;;;;;;;13.23;8.98;;;;;;;18.26;100.00;98930.28;5074598;28;20040;-94
2022/08/30 04:23:52;;;;;;;15.48;10.00;;;;;;;18.14;100.00;98919.31;5074585;28;20044;-93
2022/08/30 04:26:18;;;;;;;13.27;9.75;;;;;;;18.11;100.00;98920.38;5074229;28;20037;-94
2022/08/30 04:28:44;;;;;;;13.95;9.70;;;;;;;18.04;100.00;98911.78;5074288;28;20131;-96
2022/08/30 04:31:12;;;;;;;13.27;10.27;;;;;;;18.14;100.00;98943.56;5074071;28;20132;-93
2022/08/30 04:33:40;;;;;;;13.50;10.15;;;;;;;18.05;100.00;98926.09;5074451;28;20044;-94
2022/08/30 04:36:08;;;;;;;13.60;9.82;;;;;;;18.09;100.00;98926.81;5074551;28;20040;-93
2022/08/30 04:38:36;;;;;;;13.65;9.75;;;;;;;18.06;100.00;98922.44;5073977;28;20131;-95
2022/08/30 04:41:07;;;;;;;11.82;9.63;;;;;;;18.04;100.00;98924.34;5074228;28;20098;-94
2022/08/30 04:43:33;;;;;;;15.32;9.93;;;;;;;18.17;100.00;98949.63;5074191;28;20033;-94
2022/08/30 04:45:59;;;;;;;13.88;10.50;;;;;;;18.19;100.00;98946.84;5074171;28;20040;-93
2022/08/30 04:48:24;;;;;;;12.50;10.35;;;;;;;18.16;100.00;98928.19;5074065;28;20482;-94
2022/08/30 04:50:52;;;;;;;16.38;10.40;;;;;;;18.20;100.00;98938.69;5077608;28;20131;-93
2022/08/30 04:53:18;;;;;;;14.43;10.00;;;;;;;18.19;100.00;98933.38;5077603;28;20093;-95
2022/08/30 04:55:43;;;;;;;12.25;9.55;;;;;;;18.19;100.00;98933.38;5077770;28;20049;-93
2022/08/30 04:58:09;;;;;;;15.07;10.30;;;;;;;18.24;100.00;98929.50;5077698;28;20040;-94
2022/08/30 05:00:36;;;;;;;16.17;10.15;;;;;;;18.25;100.00;98935.75;5077737;28;20044;-94
2022/08/30 05:03:03;;;;;;;13.30;10.40;;;;;;;18.33;100.00;98952.34;5077107;28;20070;-95
2022/08/30 05:08:28;;;;;;;16.38;10.23;;;;;;;18.35;100.00;98952.25;5133651;27;20707;-93
2022/08/30 05:10:54;;;;;;;15.90;10.70;;;;;;;18.35;100.00;98953.13;5133055;27;20047;-95
2022/08/30 05:13:21;;;;;;;14.98;10.05;;;;;;;18.30;100.00;98932.78;5132995;28;20084;-95
2022/08/30 05:15:47;;;;;;;11.95;8.73;;;;;;;18.34;100.00;98932.53;5136114;27;20047;-94
2022/08/30 05:18:14;;;;;;;13.80;9.98;;;;;;;18.44;100.00;98949.91;5136094;27;20039;-93
2022/08/30 05:20:41;;;;;;;13.20;10.60;;;;;;;18.20;100.00;98937.84;5137538;27;20093;-95
2022/08/30 05:23:08;;;;;;;17.52;11.60;;;;;;;18.33;100.00;98955.03;5128894;28;20036;-94
2022/08/30 05:25:37;;;;;;;14.30;11.65;;;;;;;18.22;100.00;98947.56;5130334;28;20039;-94
2022/08/30 05:28:04;;;;;;;19.45;11.75;;;;;;;18.17;100.00;98946.06;5136899;28;20096;-94
2022/08/30 05:30:32;;;;;;;16.17;11.25;;;;;;;18.18;100.00;98939.75;5123913;28;20449;-95
2022/08/30 05:32:58;;;;;;;16.83;11.40;;;;;;;18.37;100.00;98944.97;5136135;28;20094;-92
2022/08/30 05:35:24;;;;;;;16.63;11.40;;;;;;;18.35;100.00;98938.81;5123738;28;20043;-95
2022/08/30 05:37:50;;;;;;;16.65;11.98;;;;;;;18.56;100.00;98958.25;5134615;28;20107;-93
2022/08/30 05:40:16;;;;;;;16.52;11.32;;;;;;;18.61;100.00;98942.72;5132246;28;20043;-95
2022/08/30 05:42:44;;;;;;;17.15;10.48;;;;;;;18.88;100.00;98953.72;5127819;28;20036;-95
2022/08/30 05:45:12;;;;;;;12.68;9.88;;;;;;;19.10;99.61;98956.03;5115395;28;20079;-95
2022/08/30 05:47:38;;;;;;;13.38;9.90;;;;;;;19.28;97.86;98954.97;5115249;28;20036;-93
2022/08/30 05:50:06;;;;;;;14.60;9.52;;;;;;;19.49;96.17;98954.59;5123746;28;20131;-94
2022/08/30 05:52:34;;;;;;;15.13;9.65;;;;;;;19.64;94.53;98952.81;5131427;28;20043;-95
2022/08/30 05:55:02;;;;;;;12.47;9.20;;;;;;;19.88;93.77;98955.84;5133748;27;20048;-95
2022/08/30 05:57:31;;;;;;;12.63;9.45;;;;;;;19.87;93.12;98930.69;5130751;27;20287;-94
2022/08/30 05:59:58;;;;;;;;;;;;;;;20.14;92.40;98959.63;5134282;27;20054;-96
2022/08/30 06:02:24;;;;;;;11.10;8.55;;;;;;;20.14;92.18;98935.31;5134528;28;20368;-95
2022/08/30 06:04:50;;;;;;;13.60;9.48;;;;;;;20.33;91.77;98948.50;5134645;28;20039;-95
2022/08/30 06:07:16;;;;;;;11.30;8.80;;;;;;;20.55;89.50;98947.97;5136515;27;20060;-96
2022/08/30 06:09:42;;;;;;;11.63;9.02;;;;;;;20.61;87.96;98938.66;5126646;27;20039;-95
2022/08/30 06:12:08;;;;;;;10.35;8.65;;;;;;;20.62;87.33;98934.97;5126891;27;20558;-95
2022/08/30 06:14:34;;;;;;;10.32;8.68;;;;;;;20.78;86.45;98935.72;5120310;28;20055;-96
2022/08/30 06:17:02;;;;;;;13.10;8.80;;;;;;;21.02;85.68;98941.31;5137009;27;20035;-95
2022/08/30 06:19:28;;;;;;;10.30;8.55;;;;;;;21.20;85.14;98943.72;5113270;28;20051;-95
2022/08/30 06:21:54;;;;;;;10.65;8.10;;;;;;;21.34;84.00;98946.38;5114348;28;20047;-95
2022/08/30 06:24:20;;;;;;;12.23;8.93;;;;;;;21.26;80.78;98936.06;5124877;28;20380;-95
2022/08/30 06:26:46;;;;;;;10.05;8.07;;;;;;;21.39;82.11;98944.22;5126394;28;20098;-95
2022/08/30 06:29:16;;;;;;;11.05;8.45;;;;;;;21.46;80.87;98929.31;5111999;28;20079;-95
2022/08/30 06:31:43;;;;;;;9.40;8.00;;;;;;;21.69;80.65;98943.97;5119586;28;20051;-95
2022/08/30 06:34:10;;;;;;;9.73;8.32;;;;;;;21.82;79.42;98938.56;5124110;28;20043;-93
2022/08/30 06:36:37;;;;;;;11.00;7.78;;;;;;;21.98;77.48;98924.78;5124738;27;20476;-95
2022/08/30 06:39:04;;;;;;;10.63;7.95;;;;;;;22.34;75.04;98953.81;5124882;28;20043;-94
2022/08/30 06:41:32;;;;;;;9.82;7.10;;;;;;;22.17;75.85;98935.16;5124096;28;20085;-93
2022/08/30 06:44:01;;;;;;;11.63;7.60;;;;;;;22.17;75.28;98926.19;5109162;28;20040;-94
2022/08/30 06:46:29;;;;;;;10.65;7.70;;;;;;;22.28;74.93;98950.69;5106318;28;20051;-94
2022/08/30 06:48:55;;;;;;;9.70;7.90;;;;;;;22.37;75.42;98941.88;5104592;28;20040;-94
2022/08/30 06:51:25;;;;;;;10.23;8.20;;;;;;;22.40;76.88;98959.75;5116963;28;20032;-94
2022/08/30 06:53:53;;;;;;;10.70;8.13;;;;;;;22.28;75.73;98939.84;5121334;28;20058;-95
2022/08/30 06:56:19;;;;;;;12.43;8.25;;;;;;;22.67;74.92;98970.41;5115545;28;20040;-95
2022/08/30 06:58:46;;;;;;;11.18;8.15;;;;;;;22.79;72.97;98944.22;5120103;28;20053;-94
2022/08/30 07:01:13;;;;;;;10.35;7.68;;;;;;;23.00;73.05;98953.50;5122479;28;20042;-96
2022/08/30 07:03:39;;;;;;;9.85;7.32;;;;;;;23.23;71.17;98956.34;5123453;28;20054;-94
2022/08/30 07:06:06;;;;;;;12.05;7.88;;;;;;;23.40;69.83;98953.19;5123359;28;20043;-94
2022/08/30 07:08:34;;;;;;;11.20;7.97;;;;;;;23.36;70.00;98933.56;5122348;28;20107;-93
2022/08/30 07:11:01;;;;;;;10.95;8.23;;;;;;;23.48;69.64;98942.59;5124825;28;20086;-94
2022/08/30 07:13:27;;;;;;;13.13;7.88;;;;;;;23.56;69.69;98945.56;5111173;28;20051;-94
2022/08/30 07:15:53;;;;;;;11.50;8.50;;;;;;;22.64;71.51;98939.00;5120797;28;20152;-95
2022/08/30 07:21:26;;;;;;;11.00;8.07;;;;;;;23.35;71.88;98968.94;5099751;27;20390;-93
2022/08/30 07:23:55;;;;;;;12.50;7.95;;;;;;;23.67;69.83;98971.03;5095069;28;20127;-93
2022/08/30 07:26:23;;;;;;;12.37;8.13;;;;;;;23.93;68.11;98959.00;5096082;28;20041;-94
2022/08/30 07:28:49;;;;;;;9.82;7.20;;;;;;;24.13;66.84;98946.53;5095427;28;20285;-94
2022/08/30 07:31:19;;;;;;;11.20;7.32;;;;;;;24.31;66.08;98932.47;5098091;28;20413;-93
2022/08/30 07:33:46;;;;;;;11.00;7.82;;;;;;;24.48;65.05;98934.69;5096640;28;20059;-96
2022/08/30 07:36:14;;;;;;;12.07;7.70;;;;;;;24.43;64.61;98933.34;5098083;28;20164;-95
2022/08/30 07:38:41;;;;;;;12.10;8.63;;;;;;;24.40;65.19;98926.31;5095690;28;20101;-95
2022/08/30 07:41:07;;;;;;;11.18;8.15;;;;;;;24.23;65.44;98938.53;5099438;28;20044;-95
2022/08/30 07:43:34;;;;;;;10.38;8.10;;;;;;;24.49;66.39;98954.63;5093475;28;20045;-95
2022/08/30 07:46:01;;;;;;;11.15;7.60;;;;;;;24.74;65.26;98964.31;5093202;28;20146;-94
2022/08/30 07:48:27;;;;;;;11.20;7.68;;;;;;;24.78;63.33;98935.88;5093356;28;20115;-95
2022/08/30 07:50:53;;;;;;;10.02;7.38;;;;;;;25.12;62.61;98963.00;5096094;28;20067;-94
2022/08/30 07:53:19;;;;;;;9.43;7.60;;;;;;;25.21;61.64;98932.31;5094400;28;20078;-94
2022/08/30 07:55:47;;;;;;;10.23;7.65;;;;;;;25.49;61.16;98960.75;5096231;28;20044;-94
2022/08/30 07:58:13;;;;;;;10.80;7.32;;;;;;;25.59;59.92;98956.25;5093360;28;20044;-95
2022/08/30 08:00:39;;;;;;;9.60;7.25;;;;;;;25.70;59.57;98954.44;5094347;28;20074;-95
2022/08/30 08:03:06;;;;;;;9.98;7.15;;;;;;;25.52;59.30;98938.69;5095694;28;20029;-94
2022/08/30 08:05:36;;;;;;;12.07;7.78;;;;;;;25.40;60.19;98946.09;5094798;28;20067;-94
2022/08/30 08:08:02;;;;;;;11.75;7.60;;;;;;;25.30;60.97;98952.44;5092873;28;20055;-95
2022/08/30 08:10:28;;;;;;;10.50;8.23;;;;;;;25.50;60.39;98956.16;5094206;28;20484;-95
2022/08/30 08:12:55;;;;;;;10.88;7.97;;;;;;;25.61;59.95;98950.66;5097111;28;20278;-94
2022/08/30 08:15:22;;;;;;;10.02;7.05;;;;;;;25.88;59.13;98957.44;5095592;28;20051;-95
2022/08/30 08:17:47;;;;;;;9.68;7.38;;;;;;;25.88;58.88;98958.34;5095260;28;20048;-95
2022/08/30 08:20:14;;;;;;;9.98;7.63;;;;;;;26.03;58.87;98961.59;5094668;28;20044;-94
2022/08/30 08:22:40;;;;;;;10.55;7.65;;;;;;;26.07;57.89;98948.53;5095062;28;20619;-95
2022/08/30 08:25:07;;;;;;;12.05;7.60;;;;;;;26.13;58.13;98939.81;5097148;28;20037;-95
2022/08/30 08:27:32;;;;;;;11.20;8.10;;;;;;;26.27;56.83;98964.00;5094668;28;20110;-95
2022/08/30 08:30:00;;;;;;;10.95;8.07;;;;;;;26.10;59.18;98938.22;5093477;28;20040;-96
2022/08/30 08:32:26;;;;;;;9.23;7.38;;;;;;;26.21;58.37;98946.31;5080570;28;20041;-95
2022/08/30 08:34:52;;;;;;;10.52;7.68;;;;;;;26.47;58.25;98947.72;5082808;28;20047;-95
2022/08/30 08:37:18;;;;;;;10.77;7.70;;;;;;;26.63;57.30;98956.25;5080316;28;20045;-95
2022/08/30 08:39:43;;;;;;;11.15;7.78;;;;;;;26.64;56.54;98955.25;5081234;28;20036;-93
2022/08/30 08:42:15;;;;;;;9.02;7.55;;;;;;;26.70;56.61;98949.25;5079006;28;20044;-94
2022/08/30 08:44:50;;;;;;;10.75;8.13;;;;;;;26.64;56.02;98956.13;5081156;28;20043;-95
2022/08/30 08:47:26;;;;;;;11.73;7.90;;;;;;;26.51;55.90;98943.72;5081244;28;20041;-95
2022/08/30 08:49:56;;;;;;;11.20;8.05;;;;;;;26.38;56.67;98947.53;5079664;28;20037;-94
2022/08/30 08:55:29;;;;;;;10.80;8.07;;;;;;;26.95;56.15;98966.09;5134096;27;20860;-93
2022/08/30 08:57:55;;;;;;;11.75;8.15;;;;;;;26.88;55.45;98963.06;5148511;27;20493;-94
2022/08/30 09:00:21;;;;;;;11.88;8.32;;;;;;;26.96;55.27;98937.81;5140414;27;20126;-95
2022/08/30 09:02:55;;;;;;;12.88;8.20;;;;;;;26.66;55.11;98936.91;5145383;27;20078;-94
2022/08/30 09:05:25;;;;;;;10.40;7.63;;;;;;;26.93;56.27;98938.09;5134061;27;20100;-94
2022/08/30 09:07:57;;;;;;;11.60;8.00;;;;;;;27.28;55.72;98944.91;5138419;27;20061;-95
2022/08/30 09:10:25;;;;;;;11.40;7.72;;;;;;;27.43;53.98;98938.00;5143223;27;20511;-95
2022/08/30 09:12:53;;;;;;;9.70;7.50;;;;;;;27.59;53.98;98934.69;5146104;27;20433;-93
2022/08/30 09:15:24;;;;;;;11.05;7.70;;;;;;;27.80;53.07;98939.94;5144063;27;20108;-95
2022/08/30 09:17:53;;;;;;;11.77;7.47;;;;;;;28.01;53.00;98948.84;5137800;27;20111;-94
2022/08/30 09:20:29;;;;;;;11.60;7.55;;;;;;;28.05;52.79;98936.63;5138180;27;20048;-94
2022/08/30 09:22:56;;;;;;;8.55;7.32;;;;;;;28.21;52.62;98924.19;5140623;27;20504;-95
2022/08/30 09:25:24;;;;;;;8.77;7.50;;;;;;;28.40;51.53;98932.28;5138644;27;20046;-93
2022/08/30 09:27:54;;;;;;;9.68;7.70;;;;;;;28.26;51.28;98917.25;5140747;27;20385;-93
2022/08/30 09:30:22;;;;;;;10.57;7.65;;;;;;;28.24;50.97;98907.50;5137376;27;20043;-96
2022/08/30 09:32:54;;;;;;;11.48;8.05;;;;;;;28.40;50.97;98893.16;5137202;27;20035;-95
2022/08/30 09:35:23;;;;;;;10.82;7.75;;;;;;;28.56;51.14;98897.97;5134310;27;20047;-94
2022/08/30 09:37:55;;;;;;;9.88;7.68;;;;;;;28.73;50.76;98899.88;5143303;27;20050;-95
2022/08/30 09:40:28;;;;;;;11.38;7.95;;;;;;;28.76;50.32;98896.84;5139971;27;20043;-95
2022/08/30 09:43:01;;;;;;;9.52;8.13;;;;;;;28.87;50.03;98896.63;5143979;27;20518;-93
2022/08/30 09:45:32;;;;;;;12.43;8.00;;;;;;;28.82;47.51;98898.09;5138492;27;20043;-95
2022/08/30 09:47:58;;;;;;;12.10;7.95;;;;;;;28.59;48.25;98895.81;5144183;27;20054;-94
2022/08/30 09:50:30;;;;;;;10.23;8.40;;;;;;;28.40;49.10;98885.81;5147942;27;20103;-92
2022/08/30 09:53:08;;;;;;;10.52;8.02;;;;;;;28.54;50.11;98891.81;5151950;27;20042;-94
2022/08/30 09:55:52;;;;;;;9.65;7.80;;;;;;;28.19;50.04;98891.53;5103886;28;20128;-93
2022/08/30 09:58:35;;;;;;;9.30;7.63;;;;;;;27.91;49.41;98881.56;5101239;28;20493;-93
2022/08/30 10:01:10;;;;;;;10.75;7.55;;;;;;;28.21;49.10;98875.81;5102068;28;20037;-94
2022/08/30 10:03:42;;;;;;;9.23;7.32;;;;;;;28.46;49.40;98874.25;5098126;28;20036;-94
2022/08/30 10:06:17;;;;;;;11.13;7.78;;;;;;;28.76;48.89;98894.13;5089072;28;20036;-93
2022/08/30 10:09:00;;;;;;;10.23;7.50;;;;;;;28.98;47.80;98891.94;5078990;28;20485;-93
2022/08/30 10:11:35;;;;;;;10.52;7.70;;;;;;;29.02;47.86;98872.31;5086875;28;20044;-94
2022/08/30 10:14:28;;;;;;;9.95;7.43;;;;;;;29.05;46.28;98885.69;5098106;28;20041;-95
2022/08/30 10:17:00;;;;;;;10.35;6.93;;;;;;;29.06;45.74;98868.25;5094971;28;20060;-93
2022/08/30 10:19:41;;;;;;;9.27;6.90;;;;;;;29.22;45.02;98869.44;5096407;28;20048;-95
2022/08/30 10:22:13;;;;;;;10.45;6.95;;;;;;;29.32;45.76;98872.06;5093148;28;20074;-94
2022/08/30 10:24:44;;;;;;;8.95;7.53;;;;;;;29.57;45.65;98884.09;5101314;28;20543;-94
2022/08/30 10:27:15;;;;;;;8.95;7.30;;;;;;;29.01;45.52;98867.00;5098187;28;20524;-96
2022/08/30 10:29:48;;;;;;;12.40;7.47;;;;;;;29.00;44.65;98866.13;5083839;28;20043;-95
2022/08/30 10:32:21;;;;;;;9.20;7.38;;;;;;;29.08;45.88;98868.06;5081749;28;20563;-95
2022/08/30 10:34:51;;;;;;;10.48;7.57;;;;;;;29.04;43.35;98862.06;5083889;28;20039;-93
2022/08/30 10:37:22;;;;;;;11.88;7.43;;;;;;;29.22;44.66;98864.81;5089036;28;20069;-95
2022/08/30 10:39:51;;;;;;;12.27;7.40;;;;;;;29.23;44.78;98847.38;5082695;28;20052;-95
2022/08/30 10:42:21;;;;;;;10.43;7.70;;;;;;;29.00;44.07;98837.91;5095334;28;20044;-95
2022/08/30 10:44:51;;;;;;;10.65;7.05;;;;;;;28.94;44.14;98865.91;5083180;28;20394;-95
2022/08/30 10:47:26;;;;;;;10.75;7.93;;;;;;;28.73;44.72;98834.22;5081984;28;20036;-94
2022/08/30 10:50:01;;;;;;;9.80;7.43;;;;;;;28.50;45.08;98847.50;5083470;28;20131;-96
2022/08/30 10:52:32;;;;;;;8.05;7.20;;;;;;;28.83;45.62;98848.69;5085295;28;20401;-93
2022/08/30 10:55:03;;;;;;;9.88;7.20;;;;;;;29.09;45.44;98845.19;5114110;28;20043;-94
2022/08/30 10:57:29;;;;;;;16.88;7.55;;;;;;;29.17;43.69;98831.59;5122398;27;20056;-96
2022/08/30 11:00:02;;;;;;;10.82;7.07;;;;;;;29.05;43.43;98839.13;5117569;28;20051;-94
2022/08/30 11:02:58;;;;;;;9.68;7.00;;;;;;;29.22;43.40;98831.94;5122744;28;20039;-95
2022/08/30 11:05:51;;;;;;;8.75;7.03;;;;;;;29.26;44.33;98836.09;5113221;28;20075;-95
2022/08/30 11:08:36;;;;;;;12.68;7.35;;;;;;;29.36;43.61;98815.94;5134420;27;20046;-96
2022/08/30 11:11:13;;;;;;;8.05;6.68;;;;;;;29.53;42.40;98820.53;5112712;27;20040;-95
2022/08/30 11:13:41;;;;;;;11.75;7.45;;;;;;;29.78;44.11;98831.69;5142129;27;20369;-94
2022/08/30 11:16:14;;;;;;;8.68;7.50;;;;;;;29.99;43.75;98836.75;5136331;27;20039;-94
2022/08/30 11:18:44;;;;;;;9.95;7.07;;;;;;;30.08;43.85;98811.94;5136030;27;20068;-95
2022/08/30 11:21:20;;;;;;;10.20;7.20;;;;;;;30.22;42.58;98818.69;5122398;28;20049;-95
2022/08/30 11:23:59;;;;;;;9.77;7.18;;;;;;;30.37;43.65;98827.16;5123079;27;20039;-95
2022/08/30 11:26:58;;;;;;;9.25;7.03;;;;;;;30.30;43.08;98837.09;5118059;27;20047;-95
2022/08/30 11:29:45;;;;;;;11.75;6.78;;;;;;;30.13;42.46;98832.53;5117108;28;20063;-94
2022/08/30 11:32:56;;;;;;;7.83;6.07;;;;;;;30.37;41.69;98837.28;5113680;28;20159;-95
2022/08/30 11:35:39;;;;;;;8.10;6.30;;;;;;;30.49;42.01;98808.50;5061630;28;20135;-96
2022/08/30 11:38:16;;;;;;;8.15;7.00;;;;;;;30.23;41.54;98823.16;5054505;28;20037;-95
2022/08/30 11:40:48;;;;;;;9.15;6.95;;;;;;;30.26;41.84;98802.75;5057703;28;20049;-95
2022/08/30 11:43:54;;;;;;;10.52;6.50;;;;;;;30.49;40.08;98819.47;5065065;28;20529;-93